Mardela, Maryland
Current Conditions -  °F | °C
As of 11:06 PM on Wednesday 28 Jan 2015 (Local Time) from KCGE Reporting Station
Clear Clear  
Wind Chill: 26°   Ceiling: Unl
Heat Index: 32°   Visibility: 10mi
Dew Point: 10°   Wind: 6mph
Humidity: 41%   Direction: 310°NW
Pressure: 30.32"   Gusts: NA
Location:  38.4616°N, 75.7616°W
Report Text: KCGE 290406Z AUTO 31005KT 10SM CLR 00/M12 A3032 RMK AO1
Loading
Personal Weather Stations






























Interactive Weather Map New forecast layout! Learn more

10-Day Weather Forecast

Advertisements
Track Severe Weather on mobile